createdAt,value
2022-08-17T00:01:53.115Z,16.42
2022-08-17T00:04:39.589Z,16.30
2022-08-17T00:07:24.889Z,17.08
2022-08-17T00:10:10.785Z,27.67
2022-08-17T00:12:56.894Z,52.22
2022-08-17T00:15:42.331Z,34.95
2022-08-17T00:19:01.195Z,30.42
2022-08-17T00:22:30.800Z,18.83
2022-08-17T00:24:59.503Z,18.00
2022-08-17T00:27:50.165Z,16.08
2022-08-17T00:30:51.123Z,17.05
2022-08-17T00:33:40.384Z,16.52
2022-08-17T00:36:26.023Z,16.33
2022-08-17T00:39:11.470Z,16.20
2022-08-17T00:41:57.293Z,16.17
2022-08-17T00:44:43.514Z,15.77
2022-08-17T00:47:28.783Z,15.23
2022-08-17T00:50:16.954Z,14.68
2022-08-17T00:53:02.748Z,13.75
2022-08-17T00:55:48.483Z,15.88
2022-08-17T00:58:38.513Z,14.43
2022-08-17T01:04:12.649Z,15.60
2022-08-17T01:06:59.350Z,15.10
2022-08-17T01:09:45.094Z,16.20
2022-08-17T01:12:31.479Z,14.43
2022-08-17T01:15:17.065Z,15.38
2022-08-17T01:18:05.358Z,15.15
2022-08-17T01:20:53.648Z,14.25
2022-08-17T01:23:42.366Z,14.57
2022-08-17T01:26:29.599Z,14.73
2022-08-17T01:29:14.902Z,15.27
2022-08-17T01:32:03.858Z,14.13
2022-08-17T01:34:50.904Z,14.80
2022-08-17T01:37:40.155Z,14.55
2022-08-17T01:40:33.530Z,15.48
2022-08-17T01:43:24.828Z,13.80
2022-08-17T01:46:15.614Z,15.27
2022-08-17T01:49:01.302Z,32.90
2022-08-17T01:51:46.600Z,32.50
2022-08-17T01:54:32.365Z,28.58
2022-08-17T01:57:18.277Z,19.48
2022-08-17T02:00:06.806Z,16.75
2022-08-17T02:02:59.318Z,16.00
2022-08-17T02:05:45.033Z,15.20
2022-08-17T02:08:38.816Z,14.65
2022-08-17T02:11:38.435Z,15.68
2022-08-17T02:14:24.792Z,15.60
2022-08-17T02:17:10.275Z,16.40
2022-08-17T02:19:55.507Z,15.27
2022-08-17T02:22:44.273Z,15.20
2022-08-17T02:25:32.794Z,16.83
2022-08-17T02:28:18.623Z,15.63
2022-08-17T02:31:07.756Z,15.52
2022-08-17T02:34:00.337Z,14.73
2022-08-17T02:36:50.100Z,14.95
2022-08-17T02:39:35.342Z,14.63
2022-08-17T02:42:36.387Z,15.13
2022-08-17T02:45:24.178Z,14.77
2022-08-17T02:48:10.778Z,14.90
2022-08-17T02:50:55.933Z,14.23
2022-08-17T02:53:41.395Z,15.10
2022-08-17T02:56:26.596Z,15.00
2022-08-17T02:59:11.858Z,13.88
2022-08-17T03:01:57.980Z,16.13
2022-08-17T03:04:43.298Z,15.15
2022-08-17T03:07:29.372Z,16.08
2022-08-17T03:10:15.029Z,15.30
2022-08-17T03:13:00.590Z,15.52
2022-08-17T03:15:46.692Z,14.88
2022-08-17T03:18:32.503Z,14.90
2022-08-17T03:21:20.636Z,14.98
2022-08-17T03:24:08.910Z,15.23
2022-08-17T03:26:54.570Z,15.10
2022-08-17T03:29:40.528Z,16.83
2022-08-17T03:32:25.828Z,16.25
2022-08-17T03:35:13.317Z,16.77
2022-08-17T03:38:02.152Z,16.48
2022-08-17T03:40:56.360Z,16.45
2022-08-17T03:43:44.746Z,15.70
2022-08-17T03:46:48.504Z,16.70
2022-08-17T03:49:52.515Z,15.68
2022-08-17T03:52:56.453Z,16.13
2022-08-17T03:56:00.928Z,16.80
2022-08-17T03:58:47.039Z,17.15
2022-08-17T04:01:32.592Z,16.35
2022-08-17T04:04:19.208Z,15.43
2022-08-17T04:07:13.191Z,14.82
2022-08-17T04:09:59.366Z,15.98
2022-08-17T04:12:49.606Z,15.68
2022-08-17T04:15:34.806Z,15.77
2022-08-17T04:18:23.489Z,16.63
2022-08-17T04:21:10.346Z,17.80
2022-08-17T04:23:55.974Z,15.52
2022-08-17T04:26:52.822Z,16.27
2022-08-17T04:29:54.265Z,15.90
2022-08-17T04:33:04.252Z,16.52
2022-08-17T04:35:54.477Z,17.33
2022-08-17T04:38:45.118Z,15.98
2022-08-17T04:41:48.990Z,16.08
2022-08-17T04:44:37.637Z,16.40
2022-08-17T04:47:23.738Z,17.40
2022-08-17T04:50:09.363Z,18.50
2022-08-17T04:52:55.429Z,26.30
2022-08-17T04:55:41.708Z,22.13
2022-08-17T04:58:27.245Z,21.08
2022-08-17T05:01:13.538Z,18.40
2022-08-17T05:04:02.384Z,18.50
2022-08-17T05:07:07.425Z,17.50
2022-08-17T05:09:53.037Z,18.20
2022-08-17T05:12:38.201Z,17.98
2022-08-17T05:15:23.524Z,18.33
2022-08-17T05:18:09.900Z,18.77
2022-08-17T05:20:56.732Z,18.83
2022-08-17T05:23:43.493Z,17.45
2022-08-17T05:26:29.565Z,17.48
2022-08-17T05:29:15.249Z,18.65
2022-08-17T05:32:38.088Z,23.67
2022-08-17T05:35:15.031Z,21.20
2022-08-17T05:38:00.912Z,20.88
2022-08-17T05:40:47.269Z,20.05
2022-08-17T05:43:39.455Z,18.15
2022-08-17T05:46:26.331Z,18.08
2022-08-17T05:49:14.803Z,17.45
2022-08-17T05:52:37.399Z,16.95
2022-08-17T05:55:32.651Z,17.42
2022-08-17T05:58:46.354Z,16.63
2022-08-17T06:02:03.028Z,16.13
2022-08-17T06:05:05.104Z,15.88
2022-08-17T06:08:15.208Z,16.52
2022-08-17T06:11:06.366Z,15.07
2022-08-17T06:13:57.650Z,15.93
2022-08-17T06:16:50.450Z,15.13
2022-08-17T06:19:46.534Z,17.73
2022-08-17T06:22:40.999Z,17.88
2022-08-17T06:25:42.568Z,16.10
2022-08-17T06:28:37.535Z,15.77
2022-08-17T06:31:27.437Z,15.20
2022-08-17T06:34:13.175Z,15.13
2022-08-17T06:37:25.565Z,13.35
2022-08-17T06:40:28.188Z,12.85
2022-08-17T06:43:26.207Z,10.38
2022-08-17T06:46:30.750Z,10.32
2022-08-17T06:49:19.835Z,10.43
2022-08-17T06:52:55.669Z,11.10
2022-08-17T06:55:56.032Z,10.38
2022-08-17T06:58:44.840Z,10.80
2022-08-17T07:01:35.313Z,10.25
2022-08-17T07:04:26.571Z,11.90
2022-08-17T07:07:31.447Z,9.90
2022-08-17T07:10:19.760Z,10.48
2022-08-17T07:13:29.459Z,11.00
2022-08-17T07:16:21.921Z,9.93
2022-08-17T07:19:11.046Z,8.52
2022-08-17T07:22:14.229Z,8.50
2022-08-17T07:25:04.451Z,8.25
2022-08-17T07:27:55.878Z,7.50
2022-08-17T07:30:49.202Z,7.03
2022-08-17T07:33:36.749Z,8.02
2022-08-17T07:36:30.091Z,6.72
2022-08-17T07:39:27.548Z,6.75
2022-08-17T07:42:13.383Z,6.97
2022-08-17T07:45:19.011Z,5.97
2022-08-17T07:48:19.269Z,6.60
2022-08-17T07:51:20.170Z,5.35
2022-08-17T07:54:19.595Z,5.45
2022-08-17T07:57:14.506Z,5.60
2022-08-17T07:59:59.868Z,4.93
2022-08-17T08:03:02.097Z,5.70
2022-08-17T08:05:57.744Z,5.32
2022-08-17T08:08:50.422Z,5.28
2022-08-17T08:11:40.137Z,4.63
2022-08-17T08:14:34.085Z,5.30
2022-08-17T08:17:24.555Z,4.78
2022-08-17T08:20:37.636Z,4.97
2022-08-17T08:23:41.120Z,4.30
2022-08-17T08:26:46.337Z,4.43
2022-08-17T08:29:44.979Z,4.43
2022-08-17T08:32:59.723Z,4.57
2022-08-17T08:36:13.410Z,4.43
2022-08-17T08:39:35.332Z,4.20
2022-08-17T08:42:38.573Z,4.65
2022-08-17T08:45:56.612Z,4.38
2022-08-17T08:48:58.700Z,4.55
2022-08-17T08:52:03.123Z,4.50
2022-08-17T08:54:56.892Z,4.20
2022-08-17T08:57:55.064Z,4.15
2022-08-17T09:00:46.260Z,4.68
2022-08-17T09:03:52.462Z,3.90
2022-08-17T09:06:41.768Z,3.88
2022-08-17T09:09:42.723Z,3.90
2022-08-17T09:12:58.871Z,4.03
2022-08-17T09:15:48.445Z,4.50
2022-08-17T09:21:52.606Z,4.15
2022-08-17T09:24:54.603Z,4.57
2022-08-17T09:28:00.731Z,4.65
2022-08-17T09:30:52.120Z,4.68
2022-08-17T09:33:44.345Z,4.38
2022-08-17T09:36:35.570Z,4.60
2022-08-17T09:39:33.094Z,4.53
2022-08-17T09:42:35.689Z,4.05
2022-08-17T09:45:20.701Z,3.53
2022-08-17T09:48:21.826Z,3.33
2022-08-17T09:51:21.479Z,4.47
2022-08-17T09:54:38.575Z,4.03
2022-08-17T09:58:01.612Z,4.35
2022-08-17T10:01:00.536Z,4.53
2022-08-17T10:04:02.969Z,4.50
2022-08-17T10:07:01.677Z,3.40
2022-08-17T10:10:02.944Z,3.90
2022-08-17T10:13:09.611Z,3.97
2022-08-17T10:16:10.843Z,3.50
2022-08-17T10:19:05.332Z,3.42
2022-08-17T10:22:32.704Z,3.75
2022-08-17T10:25:54.100Z,4.03
2022-08-17T10:28:52.807Z,4.03
2022-08-17T10:31:45.532Z,34.72
2022-08-17T10:34:52.982Z,4.97
2022-08-17T10:37:46.333Z,3.63
2022-08-17T10:40:43.112Z,3.58
2022-08-17T10:43:57.885Z,3.35
2022-08-17T10:46:56.421Z,3.65
2022-08-17T10:49:47.674Z,3.80
2022-08-17T10:52:33.568Z,3.58
2022-08-17T10:55:20.302Z,3.85
2022-08-17T10:58:21.885Z,3.63
2022-08-17T11:01:08.917Z,3.92
2022-08-17T11:03:57.010Z,3.47
2022-08-17T11:07:02.267Z,3.97
2022-08-17T11:10:06.080Z,3.63
2022-08-17T11:13:29.320Z,3.63
2022-08-17T11:16:53.194Z,3.30
2022-08-17T11:20:06.523Z,3.63
2022-08-17T11:23:23.815Z,2.90
2022-08-17T11:26:25.848Z,5.90
2022-08-17T11:29:29.986Z,4.43
2022-08-17T11:32:34.164Z,2.78
2022-08-17T11:35:22.900Z,2.72
2022-08-17T11:41:26.713Z,3.83
2022-08-17T11:44:21.284Z,4.07
2022-08-17T11:47:56.981Z,4.68
2022-08-17T11:51:23.867Z,3.88
2022-08-17T11:57:29.385Z,4.68
2022-08-17T12:01:00.737Z,4.28
2022-08-17T12:03:55.605Z,8.15
2022-08-17T12:06:50.594Z,3.55
2022-08-17T12:09:41.572Z,5.35
2022-08-17T12:12:33.015Z,4.90
2022-08-17T12:15:25.446Z,3.63
2022-08-17T12:18:33.626Z,3.28
2022-08-17T12:21:37.607Z,3.30
2022-08-17T12:24:35.343Z,3.10
2022-08-17T12:27:50.748Z,3.47
2022-08-17T12:30:38.800Z,3.75
2022-08-17T12:33:28.488Z,3.10
2022-08-17T12:36:18.124Z,3.30
2022-08-17T12:42:02.840Z,3.40
2022-08-17T12:44:57.121Z,3.00
2022-08-17T12:47:43.402Z,2.80
2022-08-17T12:50:31.828Z,3.13
2022-08-17T12:53:23.341Z,3.10
2022-08-17T12:56:13.207Z,3.20
2022-08-17T12:58:58.353Z,3.65
2022-08-17T13:01:43.668Z,3.47
2022-08-17T13:04:29.749Z,3.60
2022-08-17T13:07:29.927Z,4.32
2022-08-17T13:10:21.675Z,3.58
2022-08-17T13:13:26.606Z,3.88
2022-08-17T13:16:20.999Z,3.40
2022-08-17T13:19:39.954Z,3.30
2022-08-17T13:22:57.086Z,3.15
2022-08-17T13:25:45.904Z,3.03
2022-08-17T13:28:35.976Z,3.20
2022-08-17T13:31:30.094Z,3.10
2022-08-17T13:34:18.994Z,3.47
2022-08-17T13:37:35.195Z,3.60
2022-08-17T13:40:20.580Z,3.83
2022-08-17T13:43:06.735Z,4.93
2022-08-17T13:45:53.209Z,3.20
2022-08-17T13:48:39.223Z,4.75
2022-08-17T13:51:28.767Z,3.03
2022-08-17T13:54:30.988Z,3.28
2022-08-17T13:57:22.736Z,3.72
2022-08-17T14:00:17.474Z,3.67
2022-08-17T14:03:09.393Z,3.90
2022-08-17T14:05:54.739Z,3.90
2022-08-17T14:08:40.064Z,4.70
2022-08-17T14:11:26.027Z,5.70
2022-08-17T14:14:13.158Z,3.85
2022-08-17T14:16:58.666Z,3.50
2022-08-17T14:19:43.856Z,3.35
2022-08-17T14:22:33.907Z,4.10
2022-08-17T14:25:39.144Z,3.58
2022-08-17T14:28:56.462Z,3.92
2022-08-17T14:31:54.888Z,3.55
2022-08-17T14:35:12.217Z,4.63
2022-08-17T14:38:25.054Z,4.20
2022-08-17T14:41:30.835Z,4.43
2022-08-17T14:44:22.234Z,4.82
2022-08-17T14:47:17.039Z,4.47
2022-08-17T14:52:58.042Z,3.78
2022-08-17T14:55:50.104Z,3.85
2022-08-17T14:58:36.338Z,3.65
2022-08-17T15:01:25.023Z,5.20
2022-08-17T15:04:14.939Z,6.13
2022-08-17T15:07:00.288Z,5.45
2022-08-17T15:09:45.779Z,4.38
2022-08-17T15:12:33.734Z,5.38
2022-08-17T15:15:20.330Z,5.05
2022-08-17T15:18:05.601Z,6.05
2022-08-17T15:20:51.457Z,5.88
2022-08-17T15:23:39.287Z,5.05
2022-08-17T15:26:26.394Z,5.65
2022-08-17T15:29:11.922Z,5.07
2022-08-17T15:32:00.591Z,4.65
2022-08-17T15:37:35.340Z,4.68
2022-08-17T15:40:20.836Z,5.03
2022-08-17T15:43:27.079Z,4.63
2022-08-17T15:46:17.516Z,5.50
2022-08-17T15:51:47.935Z,4.65
2022-08-17T15:54:34.574Z,4.90
2022-08-17T15:57:23.943Z,4.53
2022-08-17T16:00:10.500Z,4.18
2022-08-17T16:03:20.200Z,5.03
2022-08-17T16:06:12.555Z,4.38
2022-08-17T16:08:59.501Z,3.70
2022-08-17T16:11:45.941Z,3.70
2022-08-17T16:14:39.730Z,4.03
2022-08-17T16:17:39.258Z,4.60
2022-08-17T16:20:26.464Z,4.82
2022-08-17T16:23:17.179Z,4.50
2022-08-17T16:26:07.695Z,3.85
2022-08-17T16:28:54.314Z,3.72
2022-08-17T16:31:41.907Z,4.22
2022-08-17T16:34:27.195Z,6.20
2022-08-17T16:37:13.599Z,6.53
2022-08-17T16:40:00.354Z,5.78
2022-08-17T16:42:48.643Z,5.10
2022-08-17T16:45:41.111Z,5.10
2022-08-17T16:48:28.876Z,4.85
2022-08-17T16:51:14.207Z,5.38
2022-08-17T16:53:59.632Z,5.40
2022-08-17T16:56:45.890Z,4.78
2022-08-17T16:59:42.432Z,4.43
2022-08-17T17:02:32.051Z,4.55
2022-08-17T17:05:45.702Z,4.57
2022-08-17T17:11:47.050Z,5.28
2022-08-17T17:14:37.980Z,4.80
2022-08-17T17:17:36.127Z,4.90
2022-08-17T17:20:31.721Z,4.80
2022-08-17T17:23:57.367Z,4.78
2022-08-17T17:27:01.736Z,5.30
2022-08-17T17:30:10.456Z,5.55
2022-08-17T17:33:06.787Z,5.05
2022-08-17T17:35:57.445Z,5.47
2022-08-17T17:38:52.842Z,4.97
2022-08-17T17:41:51.960Z,4.93
2022-08-17T17:44:53.980Z,4.93
2022-08-17T17:47:39.453Z,5.82
2022-08-17T17:50:34.656Z,5.93
2022-08-17T17:53:45.387Z,6.00
2022-08-17T17:56:59.770Z,5.32
2022-08-17T18:00:21.607Z,6.00
2022-08-17T18:03:30.568Z,6.47
2022-08-17T18:06:37.133Z,6.50
2022-08-17T18:09:42.199Z,6.75
2022-08-17T18:13:05.451Z,7.88
2022-08-17T18:15:53.207Z,7.97
2022-08-17T18:18:42.894Z,8.48
2022-08-17T18:21:52.959Z,9.55
2022-08-17T18:24:42.274Z,10.00
2022-08-17T18:27:35.247Z,10.15
2022-08-17T18:30:20.677Z,10.43
2022-08-17T18:33:23.305Z,10.15
2022-08-17T18:36:10.182Z,10.07
2022-08-17T18:39:17.039Z,10.48
2022-08-17T18:42:03.738Z,8.20
2022-08-17T18:44:53.001Z,9.57
2022-08-17T18:47:55.387Z,10.25
2022-08-17T18:50:41.340Z,10.63
2022-08-17T18:53:39.658Z,10.30
2022-08-17T18:56:33.224Z,10.70
2022-08-17T18:59:18.636Z,11.18
2022-08-17T19:02:28.238Z,9.80
2022-08-17T19:05:38.528Z,9.57
2022-08-17T19:08:30.033Z,9.68
2022-08-17T19:11:34.449Z,9.63
2022-08-17T19:14:21.196Z,8.85
2022-08-17T19:17:16.308Z,11.30
2022-08-17T19:20:12.453Z,11.73
2022-08-17T19:23:24.786Z,8.75
2022-08-17T19:26:53.742Z,7.57
2022-08-17T19:29:41.081Z,7.18
2022-08-17T19:32:30.230Z,7.43
2022-08-17T19:35:26.960Z,6.35
2022-08-17T19:38:29.240Z,7.45
2022-08-17T19:41:24.288Z,7.97
2022-08-17T19:44:33.873Z,8.00
2022-08-17T19:47:54.297Z,8.35
2022-08-17T19:51:15.537Z,8.95
2022-08-17T19:54:09.737Z,8.07
2022-08-17T19:57:11.974Z,8.90
2022-08-17T20:00:04.336Z,7.78
2022-08-17T20:02:55.839Z,8.70
2022-08-17T20:06:11.502Z,9.15
2022-08-17T20:09:19.633Z,9.70
2022-08-17T20:12:10.643Z,10.25
2022-08-17T20:15:02.972Z,10.32
2022-08-17T20:17:49.175Z,10.88
2022-08-17T20:20:55.767Z,9.57
2022-08-17T20:23:59.900Z,9.15
2022-08-17T20:26:57.998Z,8.43
2022-08-17T20:30:10.235Z,7.80
2022-08-17T20:32:58.103Z,8.20
2022-08-17T20:36:01.918Z,7.80
2022-08-17T20:38:57.955Z,6.90
2022-08-17T20:42:08.057Z,6.60
2022-08-17T20:45:02.389Z,7.00
2022-08-17T20:48:15.989Z,7.40
2022-08-17T20:51:00.837Z,7.43
2022-08-17T20:53:49.326Z,7.53
2022-08-17T20:56:43.727Z,7.05
2022-08-17T20:59:49.067Z,6.82
2022-08-17T21:02:37.058Z,7.50
2022-08-17T21:05:34.572Z,6.95
2022-08-17T21:08:33.784Z,7.28
2022-08-17T21:12:00.056Z,7.45
2022-08-17T21:14:40.948Z,7.60
2022-08-17T21:17:46.454Z,7.85
2022-08-17T21:20:40.084Z,7.80
2022-08-17T21:24:03.123Z,7.53
2022-08-17T21:27:08.297Z,7.70
2022-08-17T21:30:06.550Z,7.60
2022-08-17T21:33:10.742Z,7.57
2022-08-17T21:35:59.051Z,7.97
2022-08-17T21:38:47.353Z,7.53
2022-08-17T21:41:43.898Z,8.07
2022-08-17T21:44:36.572Z,8.30
2022-08-17T21:47:26.455Z,8.52
2022-08-17T21:50:22.988Z,8.10
2022-08-17T21:53:15.797Z,7.78
2022-08-17T21:56:01.555Z,8.20
2022-08-17T21:58:54.404Z,7.68
2022-08-17T22:01:42.894Z,7.45
2022-08-17T22:04:33.435Z,8.45
2022-08-17T22:07:38.510Z,9.02
2022-08-17T22:10:37.538Z,12.02
2022-08-17T22:13:29.556Z,9.13
2022-08-17T22:16:28.519Z,8.32
2022-08-17T22:19:15.415Z,8.18
2022-08-17T22:22:11.078Z,8.32
2022-08-17T22:25:00.939Z,8.40
2022-08-17T22:27:52.016Z,8.48
2022-08-17T22:30:59.789Z,8.32
2022-08-17T22:34:00.218Z,8.20
2022-08-17T22:36:45.894Z,8.20
2022-08-17T22:39:40.358Z,7.63
2022-08-17T22:42:26.169Z,8.40
2022-08-17T22:45:11.691Z,8.43
2022-08-17T22:48:02.536Z,8.50
2022-08-17T22:50:51.491Z,8.90
2022-08-17T22:53:55.869Z,7.88
2022-08-17T22:57:30.963Z,8.77
2022-08-17T23:00:31.858Z,8.85
2022-08-17T23:03:24.311Z,8.50
2022-08-17T23:06:11.460Z,8.68
2022-08-17T23:08:57.645Z,15.23
2022-08-17T23:11:49.685Z,8.77
2022-08-17T23:14:42.414Z,10.10
2022-08-17T23:17:33.897Z,13.25
2022-08-17T23:20:21.828Z,10.40
2022-08-17T23:23:08.844Z,8.80
2022-08-17T23:25:54.691Z,8.73
2022-08-17T23:28:43.697Z,10.80
2022-08-17T23:31:35.306Z,10.05
2022-08-17T23:34:20.967Z,9.15
2022-08-17T23:37:07.280Z,9.48
2022-08-17T23:39:52.885Z,9.45
2022-08-17T23:42:43.375Z,9.43
2022-08-17T23:45:32.111Z,9.60
2022-08-17T23:48:32.516Z,9.57
2022-08-17T23:51:25.153Z,9.65
2022-08-17T23:54:24.169Z,8.77
2022-08-17T23:57:12.661Z,9.15
2022-08-17T23:59:58.319Z,9.77
